createdAt,value
2023-02-15T03:19:17.293Z,-2.00
2023-02-15T03:21:58.263Z,-2.10
2023-02-15T03:24:30.851Z,-2.20
2023-02-15T03:27:00.118Z,-2.40
2023-02-15T03:29:29.725Z,-2.30
2023-02-15T03:32:02.414Z,-2.40
2023-02-15T03:34:32.178Z,-3.00
2023-02-15T03:37:07.942Z,-0.50
2023-02-15T03:39:40.252Z,0.80
2023-02-15T03:42:13.832Z,-2.30
2023-02-15T03:44:59.013Z,-2.40
2023-02-15T03:47:30.529Z,-2.60
2023-02-15T03:50:04.118Z,-2.10
2023-02-15T03:52:33.376Z,-2.50
2023-02-15T03:55:01.426Z,-2.10
2023-02-15T03:57:48.747Z,-2.40
2023-02-15T04:00:36.868Z,-2.40
2023-02-15T04:03:21.060Z,-2.20
2023-02-15T04:05:50.440Z,-0.20
2023-02-15T04:08:18.352Z,-2.40
2023-02-15T04:10:54.362Z,-2.40
2023-02-15T04:13:23.704Z,-2.30
2023-02-15T04:16:07.042Z,-2.50
2023-02-15T04:18:54.656Z,-2.90
2023-02-15T04:21:43.045Z,-2.40
2023-02-15T04:24:29.048Z,-2.20
2023-02-15T04:26:57.663Z,-2.20
2023-02-15T04:29:27.134Z,-2.20
2023-02-15T04:31:57.018Z,-2.00
2023-02-15T04:34:25.367Z,-2.30
2023-02-15T04:36:54.650Z,-2.30
2023-02-15T04:39:22.527Z,-2.40
2023-02-15T04:41:50.451Z,-2.50
2023-02-15T04:44:18.352Z,-2.50
2023-02-15T04:46:46.238Z,-2.50
2023-02-15T04:49:14.130Z,-2.60
2023-02-15T04:51:42.051Z,-2.70
2023-02-15T04:54:11.306Z,-2.60
2023-02-15T04:56:39.989Z,-2.60
2023-02-15T04:59:08.126Z,-2.60
2023-02-15T05:01:36.002Z,-2.60
2023-02-15T05:04:04.041Z,-2.70
2023-02-15T05:06:31.973Z,-2.60
2023-02-15T05:09:00.324Z,-2.60
2023-02-15T05:11:29.604Z,-2.60
2023-02-15T05:13:57.487Z,-2.60
2023-02-15T05:16:26.464Z,-2.60
2023-02-15T05:18:54.337Z,-2.60
2023-02-15T05:21:22.261Z,-2.60
2023-02-15T05:23:50.162Z,-2.50
2023-02-15T05:26:38.015Z,-2.50
2023-02-15T05:29:08.011Z,-2.60
2023-02-15T05:31:37.108Z,-2.70
2023-02-15T05:34:05.526Z,-2.70
2023-02-15T05:36:33.397Z,-2.80
2023-02-15T05:39:01.269Z,-2.80
2023-02-15T05:41:29.318Z,-2.80
2023-02-15T05:43:57.758Z,-2.70
2023-02-15T05:46:27.088Z,-2.80
2023-02-15T05:48:55.046Z,-2.80
2023-02-15T05:51:22.940Z,-2.90
2023-02-15T05:53:50.853Z,-2.80
2023-02-15T05:56:18.738Z,-2.80
2023-02-15T05:58:46.647Z,-2.80
2023-02-15T06:01:16.691Z,-2.80
2023-02-15T06:03:46.495Z,-2.80
2023-02-15T06:06:14.694Z,-2.80
2023-02-15T06:08:42.892Z,-2.70
2023-02-15T06:11:10.868Z,-2.80
2023-02-15T06:13:39.197Z,-2.70
2023-02-15T06:16:07.306Z,-2.70
2023-02-15T06:18:35.657Z,-2.70
2023-02-15T06:21:05.166Z,-2.60
2023-02-15T06:23:33.050Z,-2.50
2023-02-15T06:26:01.315Z,-2.50
2023-02-15T06:28:29.507Z,-2.30
2023-02-15T06:30:57.562Z,-2.10
2023-02-15T06:33:25.911Z,-2.00
2023-02-15T06:35:53.827Z,-2.00
2023-02-15T06:38:23.122Z,-1.90
2023-02-15T06:40:51.022Z,-1.90
2023-02-15T06:43:18.955Z,-1.70
2023-02-15T06:45:47.268Z,-1.60
2023-02-15T06:48:15.418Z,-1.50
2023-02-15T06:50:43.423Z,-1.50
2023-02-15T06:53:11.342Z,-1.50
2023-02-15T06:55:40.584Z,-1.50
2023-02-15T06:58:08.455Z,-1.40
2023-02-15T07:00:36.514Z,-1.40
2023-02-15T07:03:04.451Z,-1.30
2023-02-15T07:05:35.849Z,-0.50
2023-02-15T07:08:03.886Z,-1.20
2023-02-15T07:10:31.937Z,-1.20
2023-02-15T07:13:00.228Z,-1.10
2023-02-15T07:15:28.170Z,-1.10
2023-02-15T07:17:56.074Z,-1.00
2023-02-15T07:20:25.800Z,-1.00
2023-02-15T07:22:53.893Z,-1.00
2023-02-15T07:25:21.939Z,-1.00
2023-02-15T07:27:49.894Z,-0.90
2023-02-15T07:30:19.478Z,-0.90
2023-02-15T07:33:05.791Z,-0.80
2023-02-15T07:35:33.897Z,-0.90
2023-02-15T07:38:02.015Z,-0.70
2023-02-15T07:40:29.927Z,-0.70
2023-02-15T07:43:00.346Z,-0.60
2023-02-15T07:45:30.618Z,-0.60
2023-02-15T07:47:58.606Z,-0.60
2023-02-15T07:50:26.498Z,1.20
2023-02-15T07:52:54.429Z,-0.50
2023-02-15T07:55:22.729Z,-0.40
2023-02-15T07:57:51.961Z,-0.30
2023-02-15T08:00:24.373Z,-0.20
2023-02-15T08:03:09.879Z,-0.10
2023-02-15T08:05:38.030Z,0.00
2023-02-15T08:08:06.522Z,0.00
2023-02-15T08:10:52.095Z,0.10
2023-02-15T08:13:20.018Z,0.10
2023-02-15T08:15:50.726Z,0.30
2023-02-15T08:18:20.017Z,0.30
2023-02-15T08:20:51.856Z,0.60
2023-02-15T08:23:20.343Z,0.70
2023-02-15T08:25:48.221Z,0.90
2023-02-15T08:28:16.135Z,1.00
2023-02-15T08:30:44.069Z,1.10
2023-02-15T08:33:12.445Z,1.20
2023-02-15T08:35:41.703Z,1.40
2023-02-15T08:38:09.624Z,1.50
2023-02-15T08:40:39.125Z,1.60
2023-02-15T08:43:08.062Z,1.80
2023-02-15T08:45:35.984Z,1.90
2023-02-15T08:48:04.175Z,2.00
2023-02-15T08:50:32.058Z,2.20
2023-02-15T08:53:01.392Z,2.30
2023-02-15T08:55:29.305Z,2.40
2023-02-15T08:57:57.198Z,2.30
2023-02-15T09:00:26.119Z,2.50
2023-02-15T09:02:54.339Z,2.80
2023-02-15T09:05:22.325Z,3.40
2023-02-15T09:07:50.196Z,3.10
2023-02-15T09:10:19.757Z,3.10
2023-02-15T09:12:47.729Z,3.30
2023-02-15T09:15:15.817Z,3.40
2023-02-15T09:17:43.804Z,3.60
2023-02-15T09:20:12.299Z,4.60
2023-02-15T09:22:41.325Z,4.00
2023-02-15T09:25:09.462Z,4.30
2023-02-15T09:27:39.517Z,4.90
2023-02-15T09:30:08.650Z,4.40
2023-02-15T09:32:36.611Z,4.40
2023-02-15T09:35:04.499Z,4.50
2023-02-15T09:37:32.767Z,4.70
2023-02-15T09:40:01.225Z,4.40
2023-02-15T09:42:58.536Z,4.90
2023-02-15T09:45:53.900Z,4.70
2023-02-15T09:48:38.271Z,4.80
2023-02-15T09:51:29.207Z,4.90
2023-02-15T09:54:12.152Z,4.90
2023-02-15T09:56:44.147Z,5.00
2023-02-15T09:59:24.001Z,5.00
2023-02-15T10:01:59.809Z,5.30
2023-02-15T10:04:51.851Z,5.40
2023-02-15T10:07:33.156Z,5.60
2023-02-15T10:10:12.104Z,5.40
2023-02-15T10:12:56.187Z,5.50
2023-02-15T10:15:46.160Z,5.70
2023-02-15T10:18:38.659Z,5.70
2023-02-15T10:21:14.288Z,6.00
2023-02-15T10:23:57.496Z,5.80
2023-02-15T10:26:30.249Z,5.90
2023-02-15T10:29:04.625Z,6.10
2023-02-15T10:31:45.501Z,6.10
2023-02-15T10:34:18.388Z,6.20
2023-02-15T10:37:01.747Z,6.70
2023-02-15T10:39:36.281Z,6.60
2023-02-15T10:42:13.140Z,6.60
2023-02-15T10:44:58.157Z,6.80
2023-02-15T10:47:40.252Z,6.90
2023-02-15T10:50:31.910Z,7.00
2023-02-15T10:53:15.865Z,7.10
2023-02-15T10:55:53.896Z,7.20
2023-02-15T10:58:32.083Z,7.30
2023-02-15T11:01:10.078Z,7.90
2023-02-15T11:04:08.789Z,7.60
2023-02-15T11:06:38.793Z,7.60
2023-02-15T11:09:12.780Z,7.70
2023-02-15T11:11:44.781Z,7.70
2023-02-15T11:14:16.530Z,7.70
2023-02-15T11:16:48.702Z,7.90
2023-02-15T11:19:23.712Z,8.00
2023-02-15T11:21:55.154Z,8.10
2023-02-15T11:24:27.825Z,8.00
2023-02-15T11:27:01.928Z,8.10
2023-02-15T11:29:35.647Z,8.20
2023-02-15T11:32:15.908Z,8.30
2023-02-15T11:34:51.622Z,8.30
2023-02-15T11:37:21.548Z,8.40
2023-02-15T11:39:52.772Z,8.50
2023-02-15T11:42:24.268Z,8.60
2023-02-15T11:45:00.620Z,8.80
2023-02-15T11:47:28.532Z,9.00
2023-02-15T11:49:58.141Z,9.10
2023-02-15T11:52:26.075Z,9.40
2023-02-15T11:54:55.282Z,9.40
2023-02-15T11:57:29.906Z,9.40
2023-02-15T12:00:04.805Z,9.50
2023-02-15T12:02:35.394Z,9.50
2023-02-15T12:05:09.569Z,9.60
2023-02-15T12:07:44.426Z,9.60
2023-02-15T12:10:21.015Z,9.70
2023-02-15T12:12:48.890Z,9.70
2023-02-15T12:15:31.405Z,9.80
2023-02-15T12:17:59.325Z,9.70
2023-02-15T12:20:33.811Z,9.60
2023-02-15T12:23:04.459Z,9.60
2023-02-15T12:25:38.073Z,9.50
2023-02-15T12:28:17.846Z,9.50
2023-02-15T12:30:45.831Z,9.50
2023-02-15T12:33:18.721Z,9.60
2023-02-15T12:35:50.711Z,9.60
2023-02-15T12:38:26.552Z,9.60
2023-02-15T12:41:00.895Z,9.60
2023-02-15T12:43:33.005Z,9.70
2023-02-15T12:46:20.742Z,9.80
2023-02-15T12:48:48.947Z,9.80
2023-02-15T12:51:18.168Z,9.80
2023-02-15T12:53:46.049Z,9.80
2023-02-15T12:56:14.153Z,9.80
2023-02-15T12:58:43.044Z,9.60
2023-02-15T13:01:16.664Z,10.30
2023-02-15T13:04:01.634Z,10.00
2023-02-15T13:06:33.877Z,10.20
2023-02-15T13:09:15.963Z,10.40
2023-02-15T13:11:45.475Z,11.10
2023-02-15T13:14:20.964Z,10.30
2023-02-15T13:16:51.584Z,10.50
2023-02-15T13:19:22.663Z,10.70
2023-02-15T13:21:55.876Z,10.30
2023-02-15T13:24:26.244Z,10.20
2023-02-15T13:27:12.889Z,10.30
2023-02-15T13:29:46.543Z,10.20
2023-02-15T13:32:24.655Z,10.10
2023-02-15T13:34:59.174Z,10.00
2023-02-15T13:37:51.861Z,9.90
2023-02-15T13:40:25.139Z,10.00
2023-02-15T13:42:58.689Z,10.00
2023-02-15T13:45:34.808Z,10.10
2023-02-15T13:48:12.473Z,10.10
2023-02-15T13:51:00.312Z,10.10
2023-02-15T13:53:50.768Z,10.10
2023-02-15T13:56:29.370Z,10.90
2023-02-15T13:59:19.718Z,10.20
2023-02-15T14:01:52.764Z,10.20
2023-02-15T14:04:36.252Z,10.20
2023-02-15T14:07:34.455Z,10.20
2023-02-15T14:10:22.598Z,10.20
2023-02-15T14:13:04.980Z,10.20
2023-02-15T14:15:41.473Z,10.30
2023-02-15T14:18:19.606Z,10.30
2023-02-15T14:21:00.768Z,10.40
2023-02-15T14:23:39.657Z,10.30
2023-02-15T14:26:17.126Z,10.40
2023-02-15T14:28:53.121Z,10.60
2023-02-15T14:31:30.035Z,10.40
2023-02-15T14:33:59.585Z,10.20
2023-02-15T14:36:30.557Z,10.30
2023-02-15T14:39:33.622Z,10.30
2023-02-15T14:42:13.132Z,10.30
2023-02-15T14:44:47.268Z,10.40
2023-02-15T14:47:21.121Z,10.40
2023-02-15T14:49:49.045Z,10.40
2023-02-15T14:52:16.937Z,10.30
2023-02-15T14:54:59.743Z,10.30
2023-02-15T14:57:35.754Z,10.20
2023-02-15T15:00:38.912Z,10.20
2023-02-15T15:03:24.473Z,10.10
2023-02-15T15:05:55.772Z,10.00
2023-02-15T15:08:30.301Z,9.90
2023-02-15T15:10:58.196Z,10.00
2023-02-15T15:13:57.951Z,9.90
2023-02-15T15:16:32.309Z,9.90
2023-02-15T15:19:01.247Z,9.80
2023-02-15T15:22:05.005Z,9.80
2023-02-15T15:24:53.247Z,9.70
2023-02-15T15:27:41.174Z,9.70
2023-02-15T15:30:51.982Z,9.60
2023-02-15T15:33:48.058Z,9.50
2023-02-15T15:36:47.744Z,9.40
2023-02-15T15:39:35.831Z,9.30
2023-02-15T15:42:14.073Z,9.30
2023-02-15T15:45:18.384Z,9.00
2023-02-15T15:48:09.809Z,9.10
2023-02-15T15:50:41.642Z,9.00
2023-02-15T15:53:20.628Z,9.00
2023-02-15T15:55:50.758Z,8.80
2023-02-15T15:58:21.384Z,8.80
2023-02-15T16:00:51.804Z,8.70
2023-02-15T16:03:24.226Z,8.50
2023-02-15T16:05:56.237Z,8.40
2023-02-15T16:08:33.193Z,8.20
2023-02-15T16:11:05.075Z,8.20
2023-02-15T16:13:33.037Z,8.10
2023-02-15T16:16:01.287Z,8.00
2023-02-15T16:18:29.847Z,7.80
2023-02-15T16:21:01.527Z,7.70
2023-02-15T16:24:05.952Z,7.70
2023-02-15T16:26:53.914Z,7.60
2023-02-15T16:29:29.615Z,7.50
2023-02-15T16:32:02.361Z,7.30
2023-02-15T16:34:33.413Z,7.30
2023-02-15T16:37:22.852Z,7.20
2023-02-15T16:39:51.296Z,7.10
2023-02-15T16:42:20.027Z,7.00
2023-02-15T16:44:53.562Z,7.00
2023-02-15T16:47:26.445Z,6.90
2023-02-15T16:49:57.601Z,6.70
2023-02-15T16:52:28.680Z,6.60
2023-02-15T16:54:59.056Z,6.40
2023-02-15T16:57:30.128Z,6.60
2023-02-15T17:00:04.161Z,6.30
2023-02-15T17:02:53.524Z,6.20
2023-02-15T17:05:22.456Z,6.20
2023-02-15T17:08:08.964Z,5.90
2023-02-15T17:10:40.153Z,5.80
2023-02-15T17:13:12.731Z,5.70
2023-02-15T17:16:24.867Z,6.30
2023-02-15T17:18:54.729Z,5.60
2023-02-15T17:21:27.380Z,6.00
2023-02-15T17:24:01.047Z,5.40
2023-02-15T17:26:32.444Z,5.30
2023-02-15T17:29:02.924Z,5.50
2023-02-15T17:31:33.697Z,5.20
2023-02-15T17:34:02.788Z,5.10
2023-02-15T17:36:32.592Z,5.00
2023-02-15T17:39:23.146Z,4.80
2023-02-15T17:41:53.846Z,5.10
2023-02-15T17:44:21.843Z,4.80
2023-02-15T17:46:50.022Z,4.70
2023-02-15T17:49:29.302Z,4.60
2023-02-15T17:51:58.844Z,4.60
2023-02-15T17:54:45.588Z,4.50
2023-02-15T17:57:15.023Z,4.50
2023-02-15T18:00:00.796Z,5.00
2023-02-15T18:02:50.829Z,4.40
2023-02-15T18:05:36.405Z,4.30
2023-02-15T18:08:21.772Z,4.40
2023-02-15T18:11:08.564Z,4.20
2023-02-15T18:13:36.457Z,4.10
2023-02-15T18:16:04.574Z,4.10
2023-02-15T18:18:32.539Z,4.00
2023-02-15T18:21:00.683Z,4.00
2023-02-15T18:23:28.609Z,4.00
2023-02-15T18:25:57.874Z,4.00
2023-02-15T18:28:25.757Z,4.90
2023-02-15T18:30:53.724Z,4.80
2023-02-15T18:33:37.500Z,4.10
2023-02-15T18:36:07.813Z,4.40
2023-02-15T18:38:35.889Z,4.00
2023-02-15T18:41:05.793Z,4.00
2023-02-15T18:43:33.691Z,4.00
2023-02-15T18:46:01.614Z,4.60
2023-02-15T18:48:29.551Z,3.90
2023-02-15T18:50:57.442Z,3.90
2023-02-15T18:53:25.380Z,3.90
2023-02-15T18:55:53.393Z,3.90
2023-02-15T18:58:24.683Z,3.80
2023-02-15T19:00:52.929Z,4.60
2023-02-15T19:03:21.069Z,4.10
2023-02-15T19:05:49.092Z,3.80
2023-02-15T19:08:21.868Z,3.90
2023-02-15T19:10:49.983Z,4.50
2023-02-15T19:13:18.381Z,4.30
2023-02-15T19:15:47.658Z,3.80
2023-02-15T19:18:15.533Z,3.80
2023-02-15T19:20:45.559Z,3.90
2023-02-15T19:23:19.362Z,4.90
2023-02-15T19:25:49.370Z,4.00
2023-02-15T19:28:26.032Z,4.00
2023-02-15T19:30:55.397Z,4.00
2023-02-15T19:33:23.727Z,5.10
2023-02-15T19:35:57.191Z,4.10
2023-02-15T19:38:30.091Z,4.10
2023-02-15T19:41:02.093Z,4.60
2023-02-15T19:43:30.164Z,4.10
2023-02-15T19:45:59.443Z,4.20
2023-02-15T19:48:27.460Z,5.10
2023-02-15T19:50:56.811Z,4.70
2023-02-15T19:53:26.595Z,4.20
2023-02-15T19:55:54.850Z,4.20
2023-02-15T19:58:23.376Z,4.20
2023-02-15T20:00:52.817Z,4.10
2023-02-15T20:03:22.120Z,4.40
2023-02-15T20:05:50.125Z,4.10
2023-02-15T20:08:20.547Z,4.00
2023-02-15T20:10:48.502Z,4.00
2023-02-15T20:13:17.654Z,4.00
2023-02-15T20:15:53.585Z,3.90
2023-02-15T20:18:23.013Z,3.90
2023-02-15T20:20:52.870Z,3.80
2023-02-15T20:23:23.647Z,5.60
2023-02-15T20:25:51.955Z,3.80
2023-02-15T20:28:22.234Z,3.80
2023-02-15T20:30:50.939Z,3.80
2023-02-15T20:33:19.814Z,3.80
2023-02-15T20:35:50.100Z,3.80
2023-02-15T20:38:21.314Z,3.70
2023-02-15T20:41:07.000Z,3.70
2023-02-15T20:43:35.380Z,3.70
2023-02-15T20:46:04.088Z,3.70
2023-02-15T20:48:32.183Z,3.70
2023-02-15T20:51:01.922Z,3.70
2023-02-15T20:53:30.535Z,3.60
2023-02-15T20:55:58.401Z,3.60
2023-02-15T20:58:28.723Z,3.60
2023-02-15T21:00:58.476Z,3.50
2023-02-15T21:03:31.037Z,3.50
2023-02-15T21:05:59.241Z,3.50
2023-02-15T21:08:29.209Z,3.50
2023-02-15T21:10:57.118Z,3.50
2023-02-15T21:13:27.727Z,3.50
2023-02-15T21:15:56.856Z,4.90
2023-02-15T21:18:26.262Z,3.50
2023-02-15T21:20:56.157Z,3.50
2023-02-15T21:23:26.776Z,3.50
2023-02-15T21:25:57.286Z,3.50
2023-02-15T21:28:28.361Z,4.60
2023-02-15T21:30:58.120Z,4.20
2023-02-15T21:33:36.232Z,3.50
2023-02-15T21:36:04.420Z,3.50
2023-02-15T21:38:32.772Z,3.50
2023-02-15T21:41:22.200Z,4.00
2023-02-15T21:44:07.587Z,3.40
2023-02-15T21:46:53.136Z,3.50
2023-02-15T21:49:21.045Z,3.40
2023-02-15T21:52:08.666Z,3.30
2023-02-15T21:54:37.417Z,3.30
2023-02-15T21:57:06.720Z,3.30
2023-02-15T21:59:35.007Z,3.50
2023-02-15T22:02:02.990Z,3.20
2023-02-15T22:04:31.795Z,3.20
2023-02-15T22:06:59.725Z,3.20
2023-02-15T22:09:28.596Z,3.20
2023-02-15T22:11:56.593Z,3.20
2023-02-15T22:14:36.363Z,3.30
2023-02-15T22:17:05.501Z,3.30
2023-02-15T22:19:33.390Z,3.90
2023-02-15T22:22:01.280Z,3.30
2023-02-15T22:24:29.426Z,3.30
2023-02-15T22:26:57.506Z,3.40
2023-02-15T22:29:25.977Z,3.70
2023-02-15T22:31:55.345Z,4.60
2023-02-15T22:34:28.569Z,4.30
2023-02-15T22:36:56.997Z,3.30
2023-02-15T22:39:25.286Z,3.30
2023-02-15T22:41:53.592Z,3.30
2023-02-15T22:44:24.660Z,3.20
2023-02-15T22:46:52.924Z,3.60
2023-02-15T22:49:22.521Z,3.20
2023-02-15T22:51:51.633Z,3.10
2023-02-15T22:54:21.893Z,3.10
2023-02-15T22:56:51.157Z,3.10
2023-02-15T22:59:24.408Z,3.10
2023-02-15T23:01:53.075Z,3.10
2023-02-15T23:04:25.700Z,3.10
2023-02-15T23:06:55.155Z,3.10
2023-02-15T23:09:23.496Z,3.10
2023-02-15T23:11:52.909Z,3.10
2023-02-15T23:14:27.302Z,3.10
2023-02-15T23:16:55.835Z,3.10
2023-02-15T23:19:25.137Z,3.10
2023-02-15T23:21:53.226Z,3.00
2023-02-15T23:24:23.302Z,3.00
2023-02-15T23:26:51.809Z,3.00
2023-02-15T23:29:22.057Z,3.00
2023-02-15T23:31:52.136Z,3.00
2023-02-15T23:34:23.504Z,4.00
2023-02-15T23:36:52.995Z,3.00
2023-02-15T23:39:40.073Z,3.00
2023-02-15T23:42:10.910Z,3.00
2023-02-15T23:44:40.528Z,3.00
2023-02-15T23:47:20.475Z,3.00
2023-02-15T23:49:48.484Z,3.00
2023-02-15T23:52:17.754Z,2.90
2023-02-15T23:54:45.616Z,2.90
2023-02-15T23:57:14.232Z,2.90
2023-02-15T23:59:45.123Z,2.90
